createdAt,value
2023-01-03T00:06:07.539Z,1
2023-01-03T00:16:07.385Z,1
2023-01-03T00:26:07.290Z,1
2023-01-03T00:36:07.336Z,1
2023-01-03T00:46:07.319Z,1
2023-01-03T00:56:07.094Z,1
2023-01-03T01:06:07.027Z,1
2023-01-03T01:16:07.000Z,1
2023-01-03T01:26:06.881Z,1
2023-01-03T01:36:06.829Z,1
2023-01-03T01:46:06.783Z,1
2023-01-03T01:56:06.688Z,1
2023-01-03T02:06:06.598Z,1
2023-01-03T02:16:06.567Z,1
2023-01-03T02:26:06.452Z,1
2023-01-03T02:36:06.378Z,1
2023-01-03T02:46:06.385Z,1
2023-01-03T02:56:06.260Z,1
2023-01-03T03:06:06.211Z,1
2023-01-03T03:16:06.196Z,1
2023-01-03T03:26:06.040Z,1
2023-01-03T03:36:06.001Z,1
2023-01-03T03:46:05.890Z,1
2023-01-03T03:56:05.849Z,1
2023-01-03T04:06:05.797Z,1
2023-01-03T04:16:05.792Z,1
2023-01-03T04:26:05.622Z,1
2023-01-03T04:36:05.543Z,1
2023-01-03T04:46:05.597Z,1
2023-01-03T04:56:05.449Z,1
2023-01-03T05:06:05.340Z,1
2023-01-03T05:16:05.320Z,1
2023-01-03T05:26:05.200Z,1
2023-01-03T05:36:05.097Z,1
2023-01-03T05:46:05.085Z,1
2023-01-03T05:56:05.005Z,1
2023-01-03T06:06:04.945Z,8
2023-01-03T06:16:04.848Z,11
2023-01-03T06:26:04.758Z,16
2023-01-03T06:36:04.707Z,17
2023-01-03T06:46:04.723Z,25
2023-01-03T06:56:04.557Z,27
2023-01-03T07:06:04.462Z,29
2023-01-03T07:16:04.468Z,28
2023-01-03T07:26:04.330Z,40
2023-01-03T07:36:11.059Z,34
2023-01-03T07:46:04.259Z,39
2023-01-03T07:56:09.125Z,36
2023-01-03T08:06:04.072Z,48
2023-01-03T08:16:04.009Z,38
2023-01-03T08:26:03.945Z,41
2023-01-03T08:36:03.949Z,46
2023-01-03T08:46:03.798Z,38
2023-01-03T08:56:03.830Z,48
2023-01-03T09:06:03.630Z,54
2023-01-03T09:16:03.714Z,61
2023-01-03T09:26:03.535Z,52
2023-01-03T09:36:03.429Z,53
2023-01-03T09:46:03.317Z,49
2023-01-03T09:56:03.292Z,58
2023-01-03T10:06:03.214Z,62
2023-01-03T10:16:03.156Z,67
2023-01-03T10:26:03.088Z,71
2023-01-03T10:36:03.016Z,82
2023-01-03T10:46:02.953Z,93
2023-01-03T10:56:02.855Z,89
2023-01-03T11:06:02.757Z,91
2023-01-03T11:16:02.722Z,96
2023-01-03T11:26:02.611Z,99
2023-01-03T11:36:02.554Z,99
2023-01-03T11:46:02.500Z,99
2023-01-03T11:56:02.551Z,99
2023-01-03T12:06:02.394Z,99
2023-01-03T12:16:02.381Z,99
2023-01-03T12:26:02.180Z,99
2023-01-03T12:36:02.153Z,96
2023-01-03T12:46:06.994Z,99
2023-01-03T12:56:01.974Z,99
2023-01-03T13:06:01.899Z,94
2023-01-03T13:16:01.885Z,86
2023-01-03T13:26:01.789Z,90
2023-01-03T13:36:01.697Z,96
2023-01-03T13:46:01.667Z,99
2023-01-03T13:56:01.574Z,99
2023-01-03T14:06:01.487Z,99
2023-01-03T14:16:01.537Z,99
2023-01-03T14:26:01.383Z,99
2023-01-03T14:36:01.290Z,99
2023-01-03T14:46:01.488Z,99
2023-01-03T14:56:01.161Z,99
2023-01-03T15:06:01.079Z,99
2023-01-03T15:16:01.066Z,99
2023-01-03T15:26:00.906Z,99
2023-01-03T15:36:00.878Z,99
2023-01-03T15:46:00.895Z,99
2023-01-03T15:56:00.730Z,99
2023-01-03T16:06:00.641Z,99
2023-01-03T16:16:00.554Z,99
2023-01-03T16:26:00.470Z,99
2023-01-03T16:36:00.524Z,99
2023-01-03T16:46:00.423Z,99
2023-01-03T16:56:00.259Z,99
2023-01-03T17:06:00.189Z,99
2023-01-03T17:16:00.136Z,99
2023-01-03T17:26:00.125Z,99
2023-01-03T17:35:59.988Z,99
2023-01-03T17:45:59.958Z,99
2023-01-03T17:55:59.892Z,99
2023-01-03T18:05:59.787Z,99
2023-01-03T18:15:59.749Z,99
2023-01-03T18:25:59.651Z,98
2023-01-03T18:35:59.583Z,82
2023-01-03T18:45:59.633Z,96
2023-01-03T18:55:59.466Z,67
2023-01-03T19:05:59.372Z,85
2023-01-03T19:15:59.396Z,98
2023-01-03T19:25:59.212Z,98
2023-01-03T19:35:59.123Z,72
2023-01-03T19:45:59.152Z,24
2023-01-03T19:55:59.035Z,47
2023-01-03T20:05:58.955Z,59
2023-01-03T20:15:58.874Z,30
2023-01-03T20:25:58.804Z,16
2023-01-03T20:36:18.074Z,25
2023-01-03T20:45:58.756Z,11
2023-01-03T20:55:58.595Z,1
2023-01-03T21:05:58.519Z,1
2023-01-03T21:15:58.489Z,1
2023-01-03T21:25:58.459Z,1
2023-01-03T21:35:58.318Z,1
2023-01-03T21:45:58.327Z,1
2023-01-03T21:55:58.150Z,1
2023-01-03T22:05:58.068Z,1
2023-01-03T22:15:58.076Z,1
2023-01-03T22:25:57.925Z,1
2023-01-03T22:35:57.854Z,1
2023-01-03T22:45:57.985Z,1
2023-01-03T22:55:57.711Z,1
2023-01-03T23:05:57.642Z,1
2023-01-03T23:15:57.576Z,1
2023-01-03T23:25:57.499Z,1
2023-01-03T23:35:57.450Z,1
2023-01-03T23:45:57.434Z,1
2023-01-03T23:55:57.334Z,1
